sensor_id;sensor_type;location;lat;lon;timestamp;pressure;altitude;pressure_sealevel;temperature;humidity
63405;BME280;49541;57.840;12.306;2023-11-18T00:03:16;101623.22;;;1.45;100.00
63405;BME280;49541;57.840;12.306;2023-11-18T00:08:17;101615.03;;;1.54;100.00
63405;BME280;49541;57.840;12.306;2023-11-18T00:13:17;101624.88;;;1.48;100.00
63405;BME280;49541;57.840;12.306;2023-11-18T00:18:17;101632.75;;;1.48;100.00
63405;BME280;49541;57.840;12.306;2023-11-18T00:23:18;101636.75;;;1.86;100.00
63405;BME280;49541;57.840;12.306;2023-11-18T00:28:19;101641.53;;;1.73;100.00
63405;BME280;49541;57.840;12.306;2023-11-18T00:33:19;101654.50;;;1.51;100.00
63405;BME280;49541;57.840;12.306;2023-11-18T00:38:20;101655.03;;;1.62;100.00
63405;BME280;49541;57.840;12.306;2023-11-18T00:43:20;101660.63;;;1.52;100.00
63405;BME280;49541;57.840;12.306;2023-11-18T00:48:20;101660.66;;;1.50;100.00
63405;BME280;49541;57.840;12.306;2023-11-18T00:53:20;101673.09;;;1.45;100.00
63405;BME280;49541;57.840;12.306;2023-11-18T00:58:20;101663.81;;;1.61;100.00
63405;BME280;49541;57.840;12.306;2023-11-18T01:03:20;101668.59;;;1.49;100.00
63405;BME280;49541;57.840;12.306;2023-11-18T01:08:21;101668.38;;;1.55;100.00
63405;BME280;49541;57.840;12.306;2023-11-18T01:13:21;101665.53;;;1.62;100.00
63405;BME280;49541;57.840;12.306;2023-11-18T01:18:21;101664.44;;;1.41;100.00
63405;BME280;49541;57.840;12.306;2023-11-18T01:23:21;101669.84;;;1.37;100.00
63405;BME280;49541;57.840;12.306;2023-11-18T01:28:21;101666.50;;;1.32;100.00
63405;BME280;49541;57.840;12.306;2023-11-18T01:33:22;101668.97;;;1.64;100.00
63405;BME280;49541;57.840;12.306;2023-11-18T01:38:24;101665.41;;;1.66;100.00
63405;BME280;49541;57.840;12.306;2023-11-18T01:43:26;101677.00;;;1.32;100.00
63405;BME280;49541;57.840;12.306;2023-11-18T01:48:27;101678.22;;;1.48;100.00
63405;BME280;49541;57.840;12.306;2023-11-18T01:53:27;101669.78;;;1.67;100.00
63405;BME280;49541;57.840;12.306;2023-11-18T01:58:28;101668.78;;;1.42;100.00
63405;BME280;49541;57.840;12.306;2023-11-18T02:03:30;101664.41;;;1.15;100.00
63405;BME280;49541;57.840;12.306;2023-11-18T02:08:31;101663.25;;;1.23;100.00
63405;BME280;49541;57.840;12.306;2023-11-18T02:13:35;101660.38;;;1.59;100.00
63405;BME280;49541;57.840;12.306;2023-11-18T02:18:36;101654.66;;;1.73;100.00
63405;BME280;49541;57.840;12.306;2023-11-18T02:23:40;101651.03;;;1.77;100.00
63405;BME280;49541;57.840;12.306;2023-11-18T02:28:40;101655.63;;;1.71;100.00
63405;BME280;49541;57.840;12.306;2023-11-18T02:38:59;101650.38;;;1.71;100.00
63405;BME280;49541;57.840;12.306;2023-11-18T02:44:02;101647.84;;;1.68;100.00
63405;BME280;49541;57.840;12.306;2023-11-18T02:49:03;101656.78;;;1.62;100.00
63405;BME280;49541;57.840;12.306;2023-11-18T02:54:04;101651.00;;;1.79;100.00
63405;BME280;49541;57.840;12.306;2023-11-18T02:59:05;101648.81;;;1.65;100.00
63405;BME280;49541;57.840;12.306;2023-11-18T03:04:05;101649.75;;;1.89;100.00
63405;BME280;49541;57.840;12.306;2023-11-18T03:09:06;101653.81;;;2.24;100.00
63405;BME280;49541;57.840;12.306;2023-11-18T03:14:07;101641.50;;;2.50;100.00
63405;BME280;49541;57.840;12.306;2023-11-18T03:19:09;101644.78;;;1.81;100.00
63405;BME280;49541;57.840;12.306;2023-11-18T03:24:09;101643.13;;;1.79;100.00
63405;BME280;49541;57.840;12.306;2023-11-18T03:29:09;101652.25;;;2.19;100.00
63405;BME280;49541;57.840;12.306;2023-11-18T03:34:11;101646.25;;;2.15;100.00
63405;BME280;49541;57.840;12.306;2023-11-18T03:39:11;101644.16;;;2.50;100.00
63405;BME280;49541;57.840;12.306;2023-11-18T03:44:11;101637.50;;;2.87;100.00
63405;BME280;49541;57.840;12.306;2023-11-18T03:49:11;101640.28;;;2.84;100.00
63405;BME280;49541;57.840;12.306;2023-11-18T03:54:12;101636.88;;;2.80;100.00
63405;BME280;49541;57.840;12.306;2023-11-18T03:59:13;101643.84;;;2.81;100.00
63405;BME280;49541;57.840;12.306;2023-11-18T04:04:13;101639.22;;;2.64;100.00
63405;BME280;49541;57.840;12.306;2023-11-18T04:09:13;101636.66;;;2.39;100.00
63405;BME280;49541;57.840;12.306;2023-11-18T04:14:14;101633.22;;;2.84;100.00
63405;BME280;49541;57.840;12.306;2023-11-18T04:19:14;101642.56;;;3.15;100.00
63405;BME280;49541;57.840;12.306;2023-11-18T04:24:15;101637.97;;;3.20;100.00
63405;BME280;49541;57.840;12.306;2023-11-18T04:29:15;101631.28;;;1.92;100.00
63405;BME280;49541;57.840;12.306;2023-11-18T04:34:15;101623.19;;;1.72;100.00
63405;BME280;49541;57.840;12.306;2023-11-18T04:39:16;101634.09;;;1.86;100.00
63405;BME280;49541;57.840;12.306;2023-11-18T04:44:17;101625.97;;;1.67;100.00
63405;BME280;49541;57.840;12.306;2023-11-18T04:49:17;101611.16;;;1.66;100.00
63405;BME280;49541;57.840;12.306;2023-11-18T04:54:18;101607.72;;;1.64;100.00
63405;BME280;49541;57.840;12.306;2023-11-18T04:59:19;101616.09;;;1.75;100.00
63405;BME280;49541;57.840;12.306;2023-11-18T05:04:19;101609.78;;;1.81;100.00
63405;BME280;49541;57.840;12.306;2023-11-18T05:09:19;101601.09;;;1.52;100.00
63405;BME280;49541;57.840;12.306;2023-11-18T05:14:20;101594.72;;;1.33;100.00
63405;BME280;49541;57.840;12.306;2023-11-18T05:19:20;101595.19;;;1.46;100.00
63405;BME280;49541;57.840;12.306;2023-11-18T05:24:21;101586.22;;;1.25;100.00
63405;BME280;49541;57.840;12.306;2023-11-18T05:29:21;101601.75;;;1.32;100.00
63405;BME280;49541;57.840;12.306;2023-11-18T05:34:22;101599.97;;;1.33;100.00
63405;BME280;49541;57.840;12.306;2023-11-18T05:39:22;101582.06;;;1.19;100.00
63405;BME280;49541;57.840;12.306;2023-11-18T05:44:24;101578.22;;;1.56;100.00
63405;BME280;49541;57.840;12.306;2023-11-18T05:49:34;101584.59;;;0.94;100.00
63405;BME280;49541;57.840;12.306;2023-11-18T05:54:34;101586.34;;;1.21;100.00
63405;BME280;49541;57.840;12.306;2023-11-18T05:59:35;101578.13;;;1.32;100.00
63405;BME280;49541;57.840;12.306;2023-11-18T06:04:36;101581.00;;;0.96;100.00
63405;BME280;49541;57.840;12.306;2023-11-18T06:09:36;101578.03;;;0.79;100.00
63405;BME280;49541;57.840;12.306;2023-11-18T06:14:37;101577.75;;;0.88;100.00
63405;BME280;49541;57.840;12.306;2023-11-18T06:19:39;101588.38;;;0.84;100.00
63405;BME280;49541;57.840;12.306;2023-11-18T06:24:40;101587.97;;;0.69;100.00
63405;BME280;49541;57.840;12.306;2023-11-18T06:29:40;101582.91;;;0.63;100.00
63405;BME280;49541;57.840;12.306;2023-11-18T06:34:40;101590.25;;;0.80;100.00
63405;BME280;49541;57.840;12.306;2023-11-18T06:39:41;101598.47;;;1.26;100.00
63405;BME280;49541;57.840;12.306;2023-11-18T06:44:41;101603.88;;;1.21;100.00
63405;BME280;49541;57.840;12.306;2023-11-18T06:49:41;101603.97;;;0.29;100.00
63405;BME280;49541;57.840;12.306;2023-11-18T06:54:41;101605.13;;;0.18;100.00
63405;BME280;49541;57.840;12.306;2023-11-18T06:59:42;101601.91;;;0.70;100.00
63405;BME280;49541;57.840;12.306;2023-11-18T07:04:42;101605.22;;;0.15;100.00
63405;BME280;49541;57.840;12.306;2023-11-18T07:09:42;101612.94;;;0.20;100.00
63405;BME280;49541;57.840;12.306;2023-11-18T07:14:44;101622.31;;;-0.04;100.00
63405;BME280;49541;57.840;12.306;2023-11-18T07:19:45;101630.25;;;0.57;100.00
63405;BME280;49541;57.840;12.306;2023-11-18T07:24:45;101634.56;;;1.17;100.00
63405;BME280;49541;57.840;12.306;2023-11-18T07:29:45;101622.28;;;0.90;100.00
63405;BME280;49541;57.840;12.306;2023-11-18T07:34:45;101639.56;;;0.67;100.00
63405;BME280;49541;57.840;12.306;2023-11-18T07:39:45;101646.84;;;1.72;100.00
63405;BME280;49541;57.840;12.306;2023-11-18T07:44:48;101643.34;;;1.45;100.00
63405;BME280;49541;57.840;12.306;2023-11-18T07:49:48;101641.16;;;1.31;100.00
63405;BME280;49541;57.840;12.306;2023-11-18T07:54:48;101643.00;;;0.99;100.00
63405;BME280;49541;57.840;12.306;2023-11-18T07:59:49;101639.84;;;0.88;100.00
63405;BME280;49541;57.840;12.306;2023-11-18T08:04:49;101651.38;;;0.82;100.00
63405;BME280;49541;57.840;12.306;2023-11-18T08:09:49;101651.91;;;0.93;100.00
63405;BME280;49541;57.840;12.306;2023-11-18T08:14:49;101651.59;;;1.60;100.00
63405;BME280;49541;57.840;12.306;2023-11-18T08:19:50;101637.03;;;0.94;100.00
63405;BME280;49541;57.840;12.306;2023-11-18T08:24:51;101639.50;;;0.69;100.00
63405;BME280;49541;57.840;12.306;2023-11-18T08:29:51;101638.53;;;1.02;100.00
63405;BME280;49541;57.840;12.306;2023-11-18T08:34:52;101632.84;;;1.71;100.00
63405;BME280;49541;57.840;12.306;2023-11-18T08:39:52;101644.03;;;2.53;100.00
63405;BME280;49541;57.840;12.306;2023-11-18T08:44:52;101640.06;;;1.91;100.00
63405;BME280;49541;57.840;12.306;2023-11-18T08:49:55;101638.66;;;1.54;100.00
63405;BME280;49541;57.840;12.306;2023-11-18T08:54:55;101632.75;;;1.19;100.00
63405;BME280;49541;57.840;12.306;2023-11-18T09:00:14;101647.53;;;1.50;100.00
63405;BME280;49541;57.840;12.306;2023-11-18T09:05:35;101638.88;;;2.50;100.00
63405;BME280;49541;57.840;12.306;2023-11-18T09:10:35;101629.44;;;2.44;100.00
63405;BME280;49541;57.840;12.306;2023-11-18T09:15:36;101625.63;;;2.77;100.00
63405;BME280;49541;57.840;12.306;2023-11-18T09:20:36;101627.09;;;2.12;100.00
63405;BME280;49541;57.840;12.306;2023-11-18T09:25:38;101628.94;;;2.35;100.00
63405;BME280;49541;57.840;12.306;2023-11-18T09:30:41;101639.88;;;2.48;100.00
63405;BME280;49541;57.840;12.306;2023-11-18T09:35:49;101650.41;;;2.71;100.00
63405;BME280;49541;57.840;12.306;2023-11-18T09:40:50;101652.09;;;2.96;100.00
63405;BME280;49541;57.840;12.306;2023-11-18T09:45:54;101656.28;;;3.23;100.00
63405;BME280;49541;57.840;12.306;2023-11-18T09:50:55;101651.88;;;3.46;100.00
63405;BME280;49541;57.840;12.306;2023-11-18T09:56:04;101652.25;;;3.15;100.00
63405;BME280;49541;57.840;12.306;2023-11-18T10:01:09;101655.88;;;3.12;100.00
63405;BME280;49541;57.840;12.306;2023-11-18T10:06:13;101655.75;;;3.59;100.00
63405;BME280;49541;57.840;12.306;2023-11-18T10:11:16;101648.22;;;3.50;100.00
63405;BME280;49541;57.840;12.306;2023-11-18T10:16:17;101652.13;;;3.40;100.00
63405;BME280;49541;57.840;12.306;2023-11-18T10:21:20;101649.66;;;3.79;100.00
63405;BME280;49541;57.840;12.306;2023-11-18T10:26:34;101643.25;;;4.67;100.00
63405;BME280;49541;57.840;12.306;2023-11-18T10:31:36;101625.63;;;5.42;100.00
63405;BME280;49541;57.840;12.306;2023-11-18T10:36:37;101614.72;;;5.67;100.00
63405;BME280;49541;57.840;12.306;2023-11-18T10:41:42;101601.06;;;5.03;100.00
63405;BME280;49541;57.840;12.306;2023-11-18T10:46:52;101609.69;;;5.26;100.00
63405;BME280;49541;57.840;12.306;2023-11-18T10:51:58;101605.84;;;5.14;100.00
63405;BME280;49541;57.840;12.306;2023-11-18T10:57:01;101607.41;;;5.18;100.00
63405;BME280;49541;57.840;12.306;2023-11-18T11:02:19;101603.69;;;5.22;100.00
63405;BME280;49541;57.840;12.306;2023-11-18T11:07:23;101600.66;;;5.12;100.00
63405;BME280;49541;57.840;12.306;2023-11-18T11:12:25;101602.28;;;5.15;100.00
63405;BME280;49541;57.840;12.306;2023-11-18T11:17:27;101593.63;;;5.11;100.00
63405;BME280;49541;57.840;12.306;2023-11-18T11:22:33;101598.69;;;5.16;100.00
63405;BME280;49541;57.840;12.306;2023-11-18T11:27:47;101589.94;;;5.16;100.00
63405;BME280;49541;57.840;12.306;2023-11-18T11:32:52;101607.75;;;5.29;100.00
63405;BME280;49541;57.840;12.306;2023-11-18T11:37:54;101604.16;;;4.94;100.00
63405;BME280;49541;57.840;12.306;2023-11-18T11:42:57;101595.66;;;5.43;100.00
63405;BME280;49541;57.840;12.306;2023-11-18T11:48:01;101590.94;;;5.84;100.00
63405;BME280;49541;57.840;12.306;2023-11-18T11:53:16;101579.03;;;5.93;100.00
63405;BME280;49541;57.840;12.306;2023-11-18T11:58:29;101596.22;;;5.84;100.00
63405;BME280;49541;57.840;12.306;2023-11-18T12:03:37;101588.84;;;5.73;100.00
63405;BME280;49541;57.840;12.306;2023-11-18T12:08:38;101574.06;;;6.22;100.00
63405;BME280;49541;57.840;12.306;2023-11-18T12:13:54;101575.03;;;6.03;100.00
63405;BME280;49541;57.840;12.306;2023-11-18T12:24:29;101571.59;;;5.84;100.00
63405;BME280;49541;57.840;12.306;2023-11-18T12:29:33;101556.09;;;5.59;100.00
63405;BME280;49541;57.840;12.306;2023-11-18T12:34:49;101551.03;;;5.89;100.00
63405;BME280;49541;57.840;12.306;2023-11-18T12:50:14;101527.28;;;5.71;100.00
63405;BME280;49541;57.840;12.306;2023-11-18T12:55:24;101519.97;;;5.77;100.00
63405;BME280;49541;57.840;12.306;2023-11-18T13:00:26;101511.41;;;5.71;100.00
63405;BME280;49541;57.840;12.306;2023-11-18T13:05:27;101502.03;;;5.83;100.00
63405;BME280;49541;57.840;12.306;2023-11-18T13:10:30;101490.16;;;6.08;100.00
63405;BME280;49541;57.840;12.306;2023-11-18T13:15:31;101492.78;;;6.41;100.00
63405;BME280;49541;57.840;12.306;2023-11-18T13:20:31;101493.44;;;5.95;100.00
63405;BME280;49541;57.840;12.306;2023-11-18T13:25:34;101478.16;;;6.34;100.00
63405;BME280;49541;57.840;12.306;2023-11-18T13:30:34;101475.88;;;6.44;100.00
63405;BME280;49541;57.840;12.306;2023-11-18T13:35:35;101478.00;;;6.37;100.00
63405;BME280;49541;57.840;12.306;2023-11-18T13:40:42;101475.44;;;6.51;100.00
63405;BME280;49541;57.840;12.306;2023-11-18T13:45:42;101467.94;;;6.60;100.00
63405;BME280;49541;57.840;12.306;2023-11-18T13:50:43;101465.63;;;6.53;100.00
63405;BME280;49541;57.840;12.306;2023-11-18T13:55:43;101460.34;;;6.53;100.00
63405;BME280;49541;57.840;12.306;2023-11-18T14:00:43;101470.25;;;6.50;100.00
63405;BME280;49541;57.840;12.306;2023-11-18T14:05:43;101460.84;;;6.28;100.00
63405;BME280;49541;57.840;12.306;2023-11-18T14:10:45;101453.66;;;6.14;100.00
63405;BME280;49541;57.840;12.306;2023-11-18T14:15:45;101447.03;;;5.90;100.00
63405;BME280;49541;57.840;12.306;2023-11-18T14:20:46;101436.78;;;5.84;100.00
63405;BME280;49541;57.840;12.306;2023-11-18T14:25:47;101445.47;;;5.52;100.00
63405;BME280;49541;57.840;12.306;2023-11-18T14:30:47;101437.97;;;6.11;100.00
63405;BME280;49541;57.840;12.306;2023-11-18T14:35:47;101431.09;;;5.58;100.00
63405;BME280;49541;57.840;12.306;2023-11-18T14:40:47;101427.72;;;4.86;100.00
63405;BME280;49541;57.840;12.306;2023-11-18T14:45:48;101425.19;;;4.66;100.00
63405;BME280;49541;57.840;12.306;2023-11-18T14:50:48;101422.69;;;4.63;100.00
63405;BME280;49541;57.840;12.306;2023-11-18T14:55:49;101419.88;;;4.48;100.00
63405;BME280;49541;57.840;12.306;2023-11-18T15:00:49;101419.94;;;4.47;100.00
63405;BME280;49541;57.840;12.306;2023-11-18T15:05:49;101414.66;;;4.28;100.00
63405;BME280;49541;57.840;12.306;2023-11-18T15:10:49;101394.91;;;4.00;100.00
63405;BME280;49541;57.840;12.306;2023-11-18T15:15:50;101387.56;;;3.88;100.00
63405;BME280;49541;57.840;12.306;2023-11-18T15:20:51;101380.19;;;3.57;100.00
63405;BME280;49541;57.840;12.306;2023-11-18T15:25:52;101380.75;;;3.44;100.00
63405;BME280;49541;57.840;12.306;2023-11-18T15:30:52;101366.31;;;3.53;100.00
63405;BME280;49541;57.840;12.306;2023-11-18T15:35:52;101374.50;;;3.85;100.00
63405;BME280;49541;57.840;12.306;2023-11-18T15:40:52;101372.66;;;3.87;100.00
63405;BME280;49541;57.840;12.306;2023-11-18T15:45:53;101364.75;;;3.49;100.00
63405;BME280;49541;57.840;12.306;2023-11-18T15:50:56;101359.88;;;3.40;100.00
63405;BME280;49541;57.840;12.306;2023-11-18T15:55:56;101360.97;;;2.95;100.00
63405;BME280;49541;57.840;12.306;2023-11-18T16:00:56;101364.91;;;3.05;100.00
63405;BME280;49541;57.840;12.306;2023-11-18T16:05:56;101359.00;;;3.00;100.00
63405;BME280;49541;57.840;12.306;2023-11-18T16:10:56;101339.16;;;2.50;100.00
63405;BME280;49541;57.840;12.306;2023-11-18T16:15:57;101339.28;;;2.47;100.00
63405;BME280;49541;57.840;12.306;2023-11-18T16:20:57;101344.06;;;2.80;100.00
63405;BME280;49541;57.840;12.306;2023-11-18T16:25:57;101323.94;;;2.36;100.00
63405;BME280;49541;57.840;12.306;2023-11-18T16:30:59;101326.47;;;2.39;100.00
63405;BME280;49541;57.840;12.306;2023-11-18T16:36:00;101322.22;;;1.91;100.00
63405;BME280;49541;57.840;12.306;2023-11-18T16:41:00;101332.19;;;2.27;100.00
63405;BME280;49541;57.840;12.306;2023-11-18T16:46:01;101318.31;;;2.23;100.00
63405;BME280;49541;57.840;12.306;2023-11-18T16:51:01;101317.38;;;2.26;100.00
63405;BME280;49541;57.840;12.306;2023-11-18T16:56:01;101306.22;;;1.97;100.00
63405;BME280;49541;57.840;12.306;2023-11-18T17:01:04;101320.22;;;1.98;100.00
63405;BME280;49541;57.840;12.306;2023-11-18T17:06:05;101313.88;;;1.81;100.00
63405;BME280;49541;57.840;12.306;2023-11-18T17:11:05;101312.28;;;1.77;100.00
63405;BME280;49541;57.840;12.306;2023-11-18T17:16:06;101320.44;;;1.70;100.00
63405;BME280;49541;57.840;12.306;2023-11-18T17:21:07;101322.25;;;1.68;100.00
63405;BME280;49541;57.840;12.306;2023-11-18T17:26:09;101329.59;;;1.59;100.00
63405;BME280;49541;57.840;12.306;2023-11-18T17:31:09;101323.72;;;1.29;100.00
63405;BME280;49541;57.840;12.306;2023-11-18T17:36:11;101323.00;;;1.48;100.00
63405;BME280;49541;57.840;12.306;2023-11-18T17:41:11;101316.78;;;1.27;100.00
63405;BME280;49541;57.840;12.306;2023-11-18T17:46:12;101317.81;;;1.70;100.00
63405;BME280;49541;57.840;12.306;2023-11-18T17:51:12;101322.50;;;1.38;100.00
63405;BME280;49541;57.840;12.306;2023-11-18T17:56:12;101322.38;;;1.17;100.00
63405;BME280;49541;57.840;12.306;2023-11-18T18:01:13;101319.75;;;1.41;100.00
63405;BME280;49541;57.840;12.306;2023-11-18T18:06:13;101317.19;;;1.39;100.00
63405;BME280;49541;57.840;12.306;2023-11-18T18:11:13;101296.91;;;0.96;100.00
63405;BME280;49541;57.840;12.306;2023-11-18T18:16:14;101301.38;;;0.92;100.00
63405;BME280;49541;57.840;12.306;2023-11-18T18:21:14;101292.53;;;0.71;100.00
63405;BME280;49541;57.840;12.306;2023-11-18T18:26:14;101291.13;;;0.61;100.00
63405;BME280;49541;57.840;12.306;2023-11-18T18:31:15;101279.66;;;0.12;100.00
63405;BME280;49541;57.840;12.306;2023-11-18T18:36:16;101272.91;;;0.81;100.00
63405;BME280;49541;57.840;12.306;2023-11-18T18:41:18;101266.25;;;0.73;100.00
63405;BME280;49541;57.840;12.306;2023-11-18T18:46:19;101238.50;;;0.40;100.00
63405;BME280;49541;57.840;12.306;2023-11-18T18:51:19;101228.66;;;-0.05;100.00
63405;BME280;49541;57.840;12.306;2023-11-18T18:56:19;101202.03;;;-0.46;100.00
63405;BME280;49541;57.840;12.306;2023-11-18T19:01:20;101227.53;;;-0.52;100.00
63405;BME280;49541;57.840;12.306;2023-11-18T19:06:21;101206.72;;;-0.27;100.00
63405;BME280;49541;57.840;12.306;2023-11-18T19:11:21;101210.78;;;-0.45;100.00
63405;BME280;49541;57.840;12.306;2023-11-18T19:16:21;101206.78;;;-0.30;100.00
63405;BME280;49541;57.840;12.306;2023-11-18T19:21:22;101210.22;;;-0.56;100.00
63405;BME280;49541;57.840;12.306;2023-11-18T19:26:24;101214.16;;;-0.43;100.00
63405;BME280;49541;57.840;12.306;2023-11-18T19:31:24;101198.81;;;-0.54;100.00
63405;BME280;49541;57.840;12.306;2023-11-18T19:36:25;101210.03;;;-0.22;100.00
63405;BME280;49541;57.840;12.306;2023-11-18T19:41:25;101200.88;;;-0.09;100.00
63405;BME280;49541;57.840;12.306;2023-11-18T19:46:26;101208.63;;;0.46;100.00
63405;BME280;49541;57.840;12.306;2023-11-18T19:51:26;101200.50;;;0.29;100.00
63405;BME280;49541;57.840;12.306;2023-11-18T19:56:26;101203.28;;;0.24;100.00
63405;BME280;49541;57.840;12.306;2023-11-18T20:01:26;101187.22;;;0.08;100.00
63405;BME280;49541;57.840;12.306;2023-11-18T20:06:28;101173.81;;;-0.34;100.00
63405;BME280;49541;57.840;12.306;2023-11-18T20:11:28;101168.34;;;-0.28;100.00
63405;BME280;49541;57.840;12.306;2023-11-18T20:16:30;101179.81;;;-0.32;100.00
63405;BME280;49541;57.840;12.306;2023-11-18T20:21:32;101162.44;;;-0.35;100.00
63405;BME280;49541;57.840;12.306;2023-11-18T20:26:32;101166.78;;;-0.07;100.00
63405;BME280;49541;57.840;12.306;2023-11-18T20:31:32;101151.53;;;0.06;100.00
63405;BME280;49541;57.840;12.306;2023-11-18T20:36:32;101145.19;;;-0.14;100.00
63405;BME280;49541;57.840;12.306;2023-11-18T20:41:33;101132.13;;;-0.40;100.00
63405;BME280;49541;57.840;12.306;2023-11-18T20:46:33;101123.41;;;-0.14;100.00
63405;BME280;49541;57.840;12.306;2023-11-18T20:51:33;101119.56;;;-0.04;100.00
63405;BME280;49541;57.840;12.306;2023-11-18T20:56:34;101111.09;;;0.13;100.00
63405;BME280;49541;57.840;12.306;2023-11-18T21:01:34;101084.63;;;0.22;100.00
63405;BME280;49541;57.840;12.306;2023-11-18T21:06:34;101080.63;;;0.35;100.00
63405;BME280;49541;57.840;12.306;2023-11-18T21:11:35;101070.50;;;0.26;100.00
63405;BME280;49541;57.840;12.306;2023-11-18T21:16:35;101072.63;;;0.15;100.00
63405;BME280;49541;57.840;12.306;2023-11-18T21:21:35;101057.41;;;0.26;100.00
63405;BME280;49541;57.840;12.306;2023-11-18T21:26:35;101045.72;;;0.11;100.00
63405;BME280;49541;57.840;12.306;2023-11-18T21:31:35;101033.25;;;0.18;100.00
63405;BME280;49541;57.840;12.306;2023-11-18T21:36:36;101025.59;;;0.12;100.00
63405;BME280;49541;57.840;12.306;2023-11-18T21:41:37;101013.75;;;0.25;100.00
63405;BME280;49541;57.840;12.306;2023-11-18T21:46:37;101000.66;;;0.02;100.00
63405;BME280;49541;57.840;12.306;2023-11-18T21:51:38;100971.84;;;0.02;100.00
63405;BME280;49541;57.840;12.306;2023-11-18T21:56:38;100957.66;;;0.09;100.00
63405;BME280;49541;57.840;12.306;2023-11-18T22:01:38;100941.47;;;-0.03;100.00
63405;BME280;49541;57.840;12.306;2023-11-18T22:06:39;100924.53;;;0.06;100.00
63405;BME280;49541;57.840;12.306;2023-11-18T22:11:39;100917.66;;;-0.20;100.00
63405;BME280;49541;57.840;12.306;2023-11-18T22:16:39;100895.84;;;-0.19;100.00
63405;BME280;49541;57.840;12.306;2023-11-18T22:21:39;100902.97;;;-0.24;100.00
63405;BME280;49541;57.840;12.306;2023-11-18T22:26:39;100887.03;;;-0.42;100.00
63405;BME280;49541;57.840;12.306;2023-11-18T22:31:43;100883.41;;;-0.14;100.00
63405;BME280;49541;57.840;12.306;2023-11-18T22:36:45;100879.38;;;0.01;100.00
63405;BME280;49541;57.840;12.306;2023-11-18T22:41:45;100876.47;;;0.09;100.00
63405;BME280;49541;57.840;12.306;2023-11-18T22:46:45;100869.81;;;0.00;100.00
63405;BME280;49541;57.840;12.306;2023-11-18T22:51:45;100865.06;;;0.32;100.00
63405;BME280;49541;57.840;12.306;2023-11-18T22:56:46;100863.31;;;0.75;100.00
63405;BME280;49541;57.840;12.306;2023-11-18T23:01:47;100851.56;;;1.06;100.00
63405;BME280;49541;57.840;12.306;2023-11-18T23:06:47;100846.53;;;0.36;100.00
63405;BME280;49541;57.840;12.306;2023-11-18T23:11:54;100841.41;;;0.55;100.00
63405;BME280;49541;57.840;12.306;2023-11-18T23:16:54;100843.00;;;0.59;100.00
63405;BME280;49541;57.840;12.306;2023-11-18T23:21:57;100833.53;;;0.35;100.00
63405;BME280;49541;57.840;12.306;2023-11-18T23:26:57;100823.06;;;0.55;100.00
63405;BME280;49541;57.840;12.306;2023-11-18T23:31:57;100813.75;;;0.48;100.00
63405;BME280;49541;57.840;12.306;2023-11-18T23:36:59;100803.34;;;0.47;100.00
63405;BME280;49541;57.840;12.306;2023-11-18T23:41:59;100789.78;;;0.37;100.00
63405;BME280;49541;57.840;12.306;2023-11-18T23:46:59;100787.91;;;0.61;100.00
63405;BME280;49541;57.840;12.306;2023-11-18T23:52:01;100785.63;;;0.31;100.00
63405;BME280;49541;57.840;12.306;2023-11-18T23:57:02;100776.38;;;0.65;100.00
